Latest Weather Observations for Yanco

IDN60801

Issued at 12:33 pm EST Tuesday 26 July 2016 (issued every 30 minutes, with the page automatically refreshed every 10 minutes)

About weather observations | Map of weather stations | Latest weather observations for NSW | Other Formats
Station Details ID: 074037 Name: YANCO AGRICULTURAL INSTITUTE Lat: -34.62 Lon: 146.43 Height: 164.0 m
Data from the previous 72 hours. | See also: Recent months at Yanco
Date/Time
EST
Temp
°C
App
Temp
°C
Dew
Point
°C
Rel
Hum
%
Delta-T
°C
Wind Press
QNH
hPa
Press
MSL
hPa
Rain since
9am
mm
Dir  Spd
km/h
Gust
km/h
Spd
kts
Gust
kts
26/12:30pm 11.9 7.9 5.1 63 3.2 NW 15 22 8 12 - - 0.0
26/12:00pm 11.0 6.7 5.1 67 2.7 WNW 17 22 9 12 - - 0.0
26/11:30am 11.0 6.8 5.5 69 2.6 NW 17 24 9 13 - - 0.0
26/11:00am 10.2 6.9 6.4 77 1.8 WNW 13 20 7 11 - - 0.0
26/10:30am 9.8 6.6 6.7 81 1.5 NW 13 19 7 10 - - 0.0
26/10:00am 8.5 5.7 7.0 90 0.7 NW 11 17 6 9 - - 0.0
26/09:30am 7.4 5.1 7.4 100 0.0 NW 9 15 5 8 - - 0.0
26/09:00am 6.6 4.5 6.6 100 0.0 NNW 7 11 4 6 - - 0.6
26/08:30am 6.1 3.9 6.1 100 0.0 NW 7 11 4 6 - - 0.6
26/08:00am 5.4 3.0 5.3 99 0.0 NNW 7 9 4 5 - - 0.6
26/07:30am 5.1 2.3 5.0 99 0.0 NNW 9 13 5 7 - - 0.4
26/07:00am 4.7 2.2 4.6 99 0.0 NNW 7 9 4 5 - - 0.4
26/06:30am 4.9 2.4 4.8 99 0.0 NNW 7 9 4 5 - - 0.4
26/06:00am 5.3 3.1 5.2 99 0.0 NW 6 9 3 5 - - 0.4
26/05:30am 5.7 3.4 5.6 99 0.0 NW 7 9 4 5 - - 0.4
26/05:00am 6.3 4.0 5.9 97 0.2 NW 7 9 4 5 - - 0.4
26/04:30am 7.2 4.2 6.0 92 0.5 W 11 17 6 9 - - 0.4
26/04:00am 7.4 4.6 7.0 97 0.2 WNW 11 15 6 8 - - 0.4
26/03:30am 8.0 4.9 7.1 94 0.4 W 13 17 7 9 - - 0.4
26/03:00am 8.4 4.5 7.2 92 0.6 W 17 26 9 14 - - 0.4
26/02:30am 8.7 4.8 7.2 90 0.7 W 17 28 9 15 - - 0.4
26/02:00am 8.9 5.6 6.3 84 1.2 WNW 13 17 7 9 - - 0.2
26/01:30am 8.9 5.8 5.6 80 1.5 WNW 11 19 6 10 - - 0.2
26/01:00am 9.2 4.3 5.2 76 1.8 WNW 20 28 11 15 - - 0.2
26/12:30am 9.4 3.3 5.0 74 2.0 NW 26 37 14 20 - - 0.2
26/12:00am 9.5 4.8 5.3 75 1.9 NW 19 30 10 16 - - 0.2
 
Date/Time
EST
Temp
°C
App
Temp
°C
Dew
Point
°C
Rel
Hum
%
Delta-T
°C
Wind Press
QNH
hPa
Press
MSL
hPa
Rain since
9am
mm
Dir  Spd
km/h
Gust
km/h
Spd
kts
Gust
kts
25/11:30pm 9.2 4.3 5.0 75 1.9 NNW 20 32 11 17 - - 0.2
25/11:00pm 8.9 4.0 5.1 77 1.7 NNW 20 28 11 15 - - 0.2
25/10:30pm 9.2 4.0 5.4 77 1.7 NNW 22 33 12 18 - - 0.2
25/10:00pm 8.6 3.8 5.5 81 1.4 NNW 20 28 11 15 - - 0.2
25/09:30pm 9.0 3.8 5.7 80 1.5 NNW 22 32 12 17 - - 0.2
25/09:00pm 8.9 4.2 6.2 83 1.3 NNW 20 30 11 16 - - 0.2
25/08:30pm 9.0 4.9 6.1 82 1.3 NNW 17 24 9 13 - - 0.2
25/08:00pm 8.6 4.8 5.9 83 1.2 NNW 15 20 8 11 - - 0.2
25/07:30pm 8.9 5.5 6.0 82 1.3 NNW 13 19 7 10 - - 0.2
25/07:00pm 8.5 5.4 5.6 82 1.3 NNW 11 17 6 9 - - 0.2
25/06:30pm 8.8 5.7 5.7 81 1.4 NW 11 15 6 8 - - 0.2
25/06:00pm 9.4 6.0 5.9 79 1.6 NW 13 19 7 10 - - 0.2
25/05:30pm 10.1 6.3 5.9 75 2.0 NW 15 19 8 10 - - 0.2
25/05:00pm 11.0 6.9 6.0 71 2.3 NW 17 24 9 13 - - 0.2
25/04:30pm 11.3 7.6 7.8 79 1.7 NNW 17 24 9 13 - - 0.2
25/04:00pm 11.1 8.1 7.6 79 1.7 NW 13 24 7 13 - - 0.2
25/03:30pm 11.5 7.8 8.0 79 1.7 NW 17 24 9 13 - - 0.2
25/03:00pm 11.9 7.6 7.2 73 2.3 NW 19 26 10 14 - - 0.2
25/02:30pm 11.4 6.7 7.7 78 1.8 NW 22 30 12 16 - - 0.0
25/02:00pm 10.3 5.9 7.5 83 1.4 WNW 20 32 11 17 - - 0.0
25/01:30pm 10.0 6.3 8.1 88 0.9 NW 17 32 9 17 - - 0.0
25/01:00pm 10.0 6.7 8.1 88 0.9 WNW 15 22 8 12 - - 0.0
25/12:30pm 10.2 6.9 8.0 86 1.1 WNW 15 24 8 13 - - 0.0
25/12:00pm 9.6 6.0 8.2 91 0.7 WNW 17 24 9 13 - - 0.0
25/11:30am 9.3 6.0 8.1 92 0.6 WNW 15 22 8 12 - - 0.0
25/11:00am 9.2 5.8 7.5 89 0.8 NW 15 22 8 12 - - 0.0
25/10:30am 8.9 4.7 7.5 91 0.7 WNW 19 24 10 13 - - 0.0
25/10:00am 8.3 4.1 7.5 95 0.4 NW 19 24 10 13 - - 0.0
25/09:30am 8.2 4.0 7.4 95 0.4 NW 19 32 10 17 - - 0.0
25/09:00am 7.6 3.7 7.2 97 0.2 NW 17 24 9 13 - - 2.8
25/08:30am 7.2 3.1 6.3 94 0.4 NW 17 22 9 12 - - 2.8
25/08:00am 6.8 3.4 5.9 94 0.4 NW 13 19 7 10 - - 2.8
25/07:30am 6.8 3.1 6.2 96 0.3 NW 15 20 8 11 - - 2.8
25/07:00am 6.9 3.1 5.7 92 0.5 NW 15 20 8 11 - - 2.8
25/06:30am 7.2 3.4 5.7 90 0.7 NW 15 20 8 11 - - 2.8
25/06:00am 7.4 2.8 5.5 88 0.9 WNW 19 26 10 14 - - 2.8
25/05:30am 7.4 2.8 5.7 89 0.8 WNW 19 28 10 15 - - 2.8
25/05:00am 7.4 2.6 5.7 89 0.8 WNW 20 30 11 16 - - 2.8
25/04:30am 7.2 2.0 5.3 88 0.9 WNW 22 30 12 16 - - 2.8
25/04:00am 7.3 2.0 5.1 86 1.0 WNW 22 35 12 19 - - 2.8
25/03:30am 7.3 2.4 5.1 86 1.0 WNW 20 33 11 18 - - 2.8
25/03:00am 7.9 2.6 5.0 82 1.3 WNW 22 37 12 20 - - 2.8
25/02:30am 7.4 2.8 5.7 89 0.8 NW 19 24 10 13 - - 2.8
25/02:00am 7.6 2.8 5.6 87 0.9 NW 20 32 11 17 - - 2.8
25/01:30am 7.5 3.4 6.1 91 0.6 NW 17 24 9 13 - - 2.8
25/01:00am 6.4 3.4 6.1 98 0.1 NW 11 17 6 9 - - 2.8
25/12:30am 6.0 3.0 5.9 99 0.0 NNW 11 17 6 9 - - 2.8
25/12:00am 5.8 2.7 5.5 98 0.1 NW 11 17 6 9 - - 2.8
 
Date/Time
EST
Temp
°C
App
Temp
°C
Dew
Point
°C
Rel
Hum
%
Delta-T
°C
Wind Press
QNH
hPa
Press
MSL
hPa
Rain since
9am
mm
Dir  Spd
km/h
Gust
km/h
Spd
kts
Gust
kts
24/11:30pm 6.2 2.8 6.1 99 0.0 NW 13 19 7 10 - - 2.8
24/11:00pm 6.3 3.3 6.0 98 0.1 NW 11 15 6 8 - - 2.8
24/10:30pm 6.9 3.1 6.0 94 0.4 NW 15 22 8 12 - - 2.8
24/10:00pm 7.5 3.4 6.4 93 0.5 WNW 17 26 9 14 - - 2.8
24/09:30pm 7.9 3.7 7.5 97 0.2 NW 19 30 10 16 - - 2.8
24/09:00pm 8.2 4.0 8.1 99 0.0 NW 20 30 11 16 - - 2.8
24/08:30pm 8.1 5.4 7.5 96 0.3 NW 11 17 6 9 - - 1.6
24/08:00pm 8.2 5.4 7.1 93 0.5 NNW 11 19 6 10 - - 1.6
24/07:30pm 8.3 4.8 7.1 92 0.6 NW 15 20 8 11 - - 1.6
24/07:00pm 8.4 4.7 6.5 88 0.9 NNW 15 22 8 12 - - 1.4
24/06:30pm 7.9 5.7 6.2 89 0.8 NNW 7 11 4 6 - - 1.4
24/06:00pm 8.1 5.6 6.4 89 0.8 N 9 11 5 6 - - 1.4
24/05:30pm 8.6 6.1 6.4 86 1.0 NNW 9 13 5 7 - - 1.4
24/05:00pm 9.3 6.0 6.6 83 1.3 NNW 13 19 7 10 - - 1.4
24/04:30pm 8.9 4.4 6.9 87 0.9 WNW 20 43 11 23 - - 1.4
24/04:00pm 11.6 5.4 6.3 70 2.5 NNW 28 46 15 25 - - 0.8
24/03:30pm 11.1 6.2 7.0 76 2.0 NNW 22 35 12 19 - - 0.8
24/03:00pm 10.7 8.5 7.9 83 1.4 NNW 9 30 5 16 - - 0.8
24/02:30pm 10.8 8.1 7.5 80 1.6 N 11 17 6 9 - - 0.6
24/02:00pm 10.3 8.0 7.5 83 1.4 N 9 15 5 8 - - 0.6
24/01:30pm 9.0 6.1 6.6 85 1.1 N 11 19 6 10 - - 0.6
24/01:00pm 10.0 6.1 6.9 81 1.5 N 17 30 9 16 - - 0.0
24/12:30pm 11.4 7.9 7.3 76 2.0 N 15 22 8 12 - - 0.0
24/12:00pm 10.7 7.0 6.5 75 2.0 N 15 20 8 11 - - 0.0
24/11:30am 9.9 6.5 5.9 76 1.9 N 13 19 7 10 - - 0.0
24/11:00am 9.3 5.5 6.0 80 1.5 N 15 20 8 11 - - 0.0
24/10:30am 8.3 4.0 5.1 80 1.4 N 17 24 9 13 - - 0.0
24/10:00am 8.2 5.4 5.3 82 1.3 NNW 9 13 5 7 - - 0.0
24/09:30am 6.8 4.3 4.6 86 1.0 NNE 7 11 4 6 - - 0.0
24/09:00am 6.4 3.4 4.2 86 1.0 NNE 9 13 5 7 - - 0.0
24/08:30am 5.8 2.8 4.0 88 0.8 NNE 9 13 5 7 - - 0.0
24/08:00am 5.1 2.0 3.6 90 0.6 N 9 13 5 7 - - 0.0
24/07:30am 4.7 1.1 3.2 90 0.6 N 11 13 6 7 - - 0.0
24/07:00am 4.1 1.2 2.5 89 0.6 N 7 9 4 5 - - 0.0
24/06:30am 3.3 0.3 1.7 89 0.6 N 7 9 4 5 - - 0.0
24/06:00am 3.1 0.0 1.6 90 0.6 N 7 9 4 5 - - 0.0
24/05:30am 3.1 0.1 1.8 91 0.5 N 7 9 4 5 - - 0.0
24/05:00am 3.1 0.0 1.6 90 0.6 N 7 9 4 5 - - 0.0
24/04:30am 2.9 -0.2 1.3 89 0.6 N 7 9 4 5 - - 0.0
24/04:00am 2.8 -0.4 1.0 88 0.7 N 7 7 4 4 - - 0.0
24/03:30am 3.1 -0.1 1.0 86 0.8 N 7 7 4 4 - - 0.0
24/03:00am 3.5 0.9 1.1 84 0.9 N 4 6 2 3 - - 0.0
24/02:30am 3.6 0.7 1.2 84 0.9 N 6 6 3 3 - - 0.0
24/02:00am 3.7 0.6 1.1 83 1.0 N 7 9 4 5 - - 0.0
24/01:30am 3.7 0.8 1.4 85 0.9 N 6 7 3 4 - - 0.0
24/01:00am 3.2 0.1 1.3 87 0.7 N 7 9 4 5 - - 0.0
24/12:30am 3.0 -0.1 1.1 87 0.7 N 7 9 4 5 - - 0.0
24/12:00am 3.5 0.5 1.1 84 0.9 N 6 7 3 4 - - 0.0
 
Date/Time
EST
Temp
°C
App
Temp
°C
Dew
Point
°C
Rel
Hum
%
Delta-T
°C
Wind Press
QNH
hPa
Press
MSL
hPa
Rain since
9am
mm
Dir  Spd
km/h
Gust
km/h
Spd
kts
Gust
kts
23/11:30pm 3.7 0.7 1.1 83 1.0 N 6 9 3 5 - - 0.0
23/11:00pm 3.8 0.8 0.8 81 1.2 NNW 6 9 3 5 - - 0.0
23/10:30pm 4.3 1.7 1.0 79 1.3 N 4 4 2 2 - - 0.0
23/10:00pm 4.7 1.7 0.8 76 1.5 NNW 6 7 3 4 - - 0.0
23/09:30pm 4.5 1.3 0.8 77 1.4 N 7 9 4 5 - - 0.0
23/09:00pm 5.3 2.3 0.7 72 1.8 W 6 7 3 4 - - 0.0
23/08:30pm 5.7 2.5 0.7 70 2.0 WNW 7 9 4 5 - - 0.0
23/08:00pm 6.5 2.9 0.8 67 2.3 W 9 15 5 8 - - 0.0
23/07:30pm 6.0 3.0 0.8 69 2.1 WNW 6 6 3 3 - - 0.0
23/07:00pm 6.6 3.3 0.3 64 2.5 WNW 7 11 4 6 - - 0.0
23/06:30pm 7.2 3.5 0.0 60 2.8 W 9 13 5 7 - - 0.0
23/06:00pm 7.7 4.0 -0.3 57 3.1 W 9 15 5 8 - - 0.0
23/05:30pm 8.8 3.5 -0.8 51 3.8 W 17 24 9 13 - - 0.0
23/05:00pm 9.7 3.4 -0.8 48 4.2 WSW 22 33 12 18 - - 0.0
23/04:30pm 10.2 4.1 0.3 50 4.1 WSW 22 28 12 15 - - 0.0
23/04:00pm 10.8 3.5 0.2 48 4.4 WSW 28 43 15 23 - - 0.0
23/03:30pm 11.5 4.7 0.6 47 4.6 W 26 39 14 21 - - 0.0
23/03:00pm 10.9 3.6 0.3 48 4.4 W 28 39 15 21 - - 0.0
23/02:30pm 11.5 4.8 1.5 50 4.3 WSW 26 37 14 20 - - 0.0
23/02:06pm 11.6 4.5 1.5 50 4.3 WSW 28 50 15 27 - - 0.0
23/02:00pm 11.7 5.1 2.2 52 4.1 WSW 26 35 14 19 - - 0.0
23/01:30pm 11.5 4.3 2.8 55 3.8 WSW 30 48 16 26 - - 0.0
23/01:00pm 11.4 4.3 3.7 59 3.4 WSW 30 48 16 26 - - 0.0
23/12:56pm 11.0 4.1 2.6 56 3.7 WSW 28 48 15 26 - - 0.0

Other Formats:

Comma delimited format used in spreadsheet applications
http://www.bom.gov.au/fwo/IDN60801/IDN60801.95705.axf

JavaScript Object Notation format (JSON) in row-major order
http://www.bom.gov.au/fwo/IDN60801/IDN60801.95705.json